Time;durP1;ratioP1;P1;durP2;ratioP2;P2;SDS_P1;SDS_P2;PMS_P1;PMS_P2;Temp;Humidity;BMP_temperature;BMP_pressure;BME280_temperature;BME280_humidity;BME280_pressure;Samples;Min_cycle;Max_cycle;Signal;HPM_P1;HPM_P2
2022/05/30 00:02:12;;;;;;;8.40;7.37;;;;;;;;;;5112972;28;20481;-71
2022/05/30 00:04:40;;;;;;;7.43;6.53;;;;;;;;;;5112969;28;20465;-70
2022/05/30 00:07:08;;;;;;;6.97;6.23;;;;;;;;;;5113127;28;20472;-70
2022/05/30 00:09:36;;;;;;;7.93;6.97;;;;;;;;;;5113083;28;20465;-70
2022/05/30 00:12:04;;;;;;;7.67;6.97;;;;;;;;;;5113111;28;20448;-70
2022/05/30 00:14:32;;;;;;;7.70;5.97;;;;;;;;;;5112974;28;20817;-70
2022/05/30 00:16:59;;;;;;;7.10;6.40;;;;;;;;;;5113133;28;20450;-70
2022/05/30 00:19:26;;;;;;;6.63;5.93;;;;;;;;;;5113182;28;20456;-70
2022/05/30 00:21:55;;;;;;;7.43;5.93;;;;;;;;;;5112924;28;20526;-70
2022/05/30 00:24:22;;;;;;;7.53;6.83;;;;;;;;;;5112787;28;21282;-69
2022/05/30 00:26:51;;;;;;;7.93;6.57;;;;;;;;;;5113479;28;20457;-69
2022/05/30 00:29:18;;;;;;;7.77;6.17;;;;;;;;;;5113473;28;20470;-69
2022/05/30 00:31:45;;;;;;;9.73;5.80;;;;;;;;;;5113036;28;20470;-69
2022/05/30 00:34:12;;;;;;;7.30;6.60;;;;;;;;;;5113103;28;20445;-69
2022/05/30 00:36:39;;;;;;;8.67;6.80;;;;;;;;;;5113324;28;20950;-69
2022/05/30 00:39:06;;;;;;;8.80;6.17;;;;;;;;;;5113397;28;20434;-69
2022/05/30 00:41:33;;;;;;;30.07;19.57;;;;;;;;;;5112839;28;20478;-69
2022/05/30 00:44:02;;;;;;;9.40;7.63;;;;;;;;;;5113017;28;20475;-69
2022/05/30 00:46:29;;;;;;;8.40;7.30;;;;;;;;;;5116503;28;20827;-69
2022/05/30 00:48:57;;;;;;;11.07;6.90;;;;;;;;;;5116991;28;20456;-69
2022/05/30 00:51:25;;;;;;;9.53;7.80;;;;;;;;;;5116824;28;20469;-69
2022/05/30 00:53:55;;;;;;;11.00;7.60;;;;;;;;;;5116899;27;20453;-69
2022/05/30 00:56:22;;;;;;;10.70;7.87;;;;;;;;;;5116802;28;20923;-69
2022/05/30 00:58:50;;;;;;;7.57;6.60;;;;;;;;;;5116877;27;20433;-69
2022/05/30 01:01:20;;;;;;;7.10;6.23;;;;;;;;;;5116363;28;20470;-69
2022/05/30 01:06:31;;;;;;;9.30;7.10;;;;;;;;;;5082515;28;20448;-69
2022/05/30 01:08:59;;;;;;;8.57;6.70;;;;;;;;;;5116623;28;20818;-69
2022/05/30 01:11:26;;;;;;;10.37;7.07;;;;;;;;;;5116474;28;20469;-69
2022/05/30 01:13:53;;;;;;;7.03;6.33;;;;;;;;;;5116496;28;20450;-69
2022/05/30 01:16:22;;;;;;;9.60;8.43;;;;;;;;;;5116422;28;20445;-69
2022/05/30 01:18:52;;;;;;;11.00;7.60;;;;;;;;;;5116365;28;20624;-69
2022/05/30 01:21:35;;;;;;;7.90;7.10;;;;;;;;;;5115988;28;20519;-69
2022/05/30 01:24:14;;;;;;;15.70;11.40;;;;;;;;;;5115962;28;20478;-69
2022/05/30 01:26:54;;;;;;;10.30;8.47;;;;;;;;;;5116222;28;20495;-69
2022/05/30 01:29:25;;;;;;;9.40;8.50;;;;;;;;;;5115941;28;20434;-69
2022/05/30 01:31:54;;;;;;;9.30;8.30;;;;;;;;;;5116168;28;20438;-69
2022/05/30 01:34:23;;;;;;;10.63;7.67;;;;;;;;;;5116123;27;20934;-69
2022/05/30 01:36:50;;;;;;;10.37;8.37;;;;;;;;;;5115744;28;20506;-69
2022/05/30 01:39:17;;;;;;;13.33;8.93;;;;;;;;;;5115976;28;20482;-69
2022/05/30 01:41:45;;;;;;;8.30;7.47;;;;;;;;;;5115707;28;21009;-69
2022/05/30 01:44:13;;;;;;;9.60;7.67;;;;;;;;;;5115909;28;20477;-69
2022/05/30 01:46:41;;;;;;;19.43;8.20;;;;;;;;;;5115837;28;20454;-69
2022/05/30 01:49:09;;;;;;;9.67;8.43;;;;;;;;;;5115797;27;20450;-69
2022/05/30 01:51:36;;;;;;;20.40;11.93;;;;;;;;;;5115332;28;20472;-69
2022/05/30 01:54:03;;;;;;;14.23;10.10;;;;;;;;;;5115411;27;20450;-69
2022/05/30 01:56:30;;;;;;;12.00;8.03;;;;;;;;;;5114546;28;20453;-69
2022/05/30 01:58:57;;;;;;;8.30;7.30;;;;;;;;;;5115388;28;20434;-69
2022/05/30 02:01:26;;;;;;;7.87;7.07;;;;;;;;;;5115166;28;20473;-69
2022/05/30 02:03:55;;;;;;;8.40;6.03;;;;;;;;;;5115127;27;20484;-69
2022/05/30 02:06:23;;;;;;;12.80;6.93;;;;;;;;;;5115072;28;20457;-69
2022/05/30 02:08:50;;;;;;;9.37;6.40;;;;;;;;;;5115409;28;20930;-69
2022/05/30 02:11:18;;;;;;;8.40;6.20;;;;;;;;;;5115312;28;20546;-69
2022/05/30 02:13:46;;;;;;;7.57;5.93;;;;;;;;;;5115313;28;20453;-69
2022/05/30 02:19:00;;;;;;;10.50;7.17;;;;;;;;;;5115273;28;20539;-69
2022/05/30 02:21:27;;;;;;;7.87;6.97;;;;;;;;;;5115077;28;20477;-69
2022/05/30 02:23:54;;;;;;;6.33;5.67;;;;;;;;;;5115362;28;20492;-69
2022/05/30 02:26:21;;;;;;;6.07;5.47;;;;;;;;;;5115069;28;20507;-69
2022/05/30 02:28:48;;;;;;;7.70;5.47;;;;;;;;;;5115046;28;20457;-69
2022/05/30 02:31:15;;;;;;;6.40;5.60;;;;;;;;;;5114825;28;20522;-69
2022/05/30 02:36:40;;;;;;;7.53;6.30;;;;;;;;;;5114704;28;20405;-69
2022/05/30 02:39:08;;;;;;;7.83;6.97;;;;;;;;;;5114535;28;20433;-69
2022/05/30 02:41:35;;;;;;;9.40;6.67;;;;;;;;;;5114546;28;20527;-69
2022/05/30 02:44:02;;;;;;;16.03;11.33;;;;;;;;;;5114651;28;20469;-69
2022/05/30 02:46:29;;;;;;;8.13;6.97;;;;;;;;;;5114374;28;20446;-69
2022/05/30 02:48:56;;;;;;;6.73;5.93;;;;;;;;;;5114306;28;20449;-69
2022/05/30 02:51:23;;;;;;;6.70;5.40;;;;;;;;;;5114575;28;20465;-69
2022/05/30 02:53:52;;;;;;;8.43;7.23;;;;;;;;;;5114514;28;20475;-69
2022/05/30 02:56:19;;;;;;;6.93;5.60;;;;;;;;;;5114134;28;20445;-69
2022/05/30 02:58:46;;;;;;;6.73;5.80;;;;;;;;;;5114529;28;20794;-69
2022/05/30 03:01:14;;;;;;;6.47;5.80;;;;;;;;;;5114357;28;20476;-69
2022/05/30 03:03:41;;;;;;;6.80;5.50;;;;;;;;;;5114042;28;20485;-69
2022/05/30 03:06:09;;;;;;;8.20;6.93;;;;;;;;;;5114393;28;20830;-69
2022/05/30 03:08:36;;;;;;;6.10;5.17;;;;;;;;;;5113997;28;20826;-69
2022/05/30 03:11:04;;;;;;;5.53;5.00;;;;;;;;;;5114238;28;20496;-69
2022/05/30 03:13:31;;;;;;;9.20;6.93;;;;;;;;;;5113908;28;20443;-69
2022/05/30 03:15:59;;;;;;;7.80;7.00;;;;;;;;;;5114210;28;20970;-69
2022/05/30 03:18:26;;;;;;;7.43;6.27;;;;;;;;;;5113860;28;20502;-69
2022/05/30 03:20:53;;;;;;;11.40;6.00;;;;;;;;;;5114129;28;20465;-69
2022/05/30 03:23:20;;;;;;;11.77;6.63;;;;;;;;;;5113693;28;20477;-69
2022/05/30 03:25:47;;;;;;;7.83;6.77;;;;;;;;;;5113789;28;20511;-69
2022/05/30 03:28:16;;;;;;;7.43;6.00;;;;;;;;;;5114022;28;20449;-69
2022/05/30 03:30:44;;;;;;;6.93;6.23;;;;;;;;;;5114318;28;20470;-69
2022/05/30 03:33:11;;;;;;;7.30;6.57;;;;;;;;;;5113653;28;20448;-69
2022/05/30 03:35:39;;;;;;;7.00;6.30;;;;;;;;;;5113967;28;20450;-69
2022/05/30 03:38:06;;;;;;;6.50;5.43;;;;;;;;;;5113907;28;20453;-69
2022/05/30 03:40:36;;;;;;;8.57;6.47;;;;;;;;;;5113827;28;20465;-69
2022/05/30 03:43:04;;;;;;;6.47;5.90;;;;;;;;;;5113534;28;20494;-69
2022/05/30 03:45:32;;;;;;;5.80;5.17;;;;;;;;;;5113805;28;20816;-69
2022/05/30 03:47:59;;;;;;;5.67;5.17;;;;;;;;;;5113519;28;20449;-69
2022/05/30 03:50:26;;;;;;;5.90;5.30;;;;;;;;;;5113397;28;20477;-69
2022/05/30 03:52:53;;;;;;;6.97;5.77;;;;;;;;;;5113491;28;20453;-69
2022/05/30 03:55:22;;;;;;;6.43;5.67;;;;;;;;;;5114156;28;20453;-69
2022/05/30 03:57:49;;;;;;;5.70;5.20;;;;;;;;;;5113683;28;20466;-69
2022/05/30 04:00:18;;;;;;;5.40;4.90;;;;;;;;;;5113712;28;20469;-69
2022/05/30 04:02:48;;;;;;;6.37;5.10;;;;;;;;;;5113644;28;20454;-69
2022/05/30 04:05:16;;;;;;;6.63;6.03;;;;;;;;;;5113701;28;20817;-69
2022/05/30 04:07:43;;;;;;;6.13;5.53;;;;;;;;;;5113662;28;20456;-69
2022/05/30 04:10:10;;;;;;;6.23;5.60;;;;;;;;;;5113547;28;20480;-69
2022/05/30 04:12:38;;;;;;;8.77;7.90;;;;;;;;;;5113618;28;20453;-69
2022/05/30 04:15:07;;;;;;;8.33;6.23;;;;;;;;;;5113623;28;20472;-69
2022/05/30 04:17:35;;;;;;;3.63;3.33;;;;;;;;;;5113224;28;20449;-69
2022/05/30 04:20:04;;;;;;;3.43;2.97;;;;;;;;;;5114517;28;20827;-69
2022/05/30 04:22:31;;;;;;;4.23;3.80;;;;;;;;;;5117173;27;20449;-69
2022/05/30 04:24:58;;;;;;;3.20;2.70;;;;;;;;;;5117414;28;20503;-69
2022/05/30 04:27:25;;;;;;;4.00;3.70;;;;;;;;;;5117465;28;20449;-69
2022/05/30 04:29:53;;;;;;;3.63;3.30;;;;;;;;;;5117294;28;20469;-69
2022/05/30 04:32:20;;;;;;;9.10;3.70;;;;;;;;;;5117017;28;20452;-69
2022/05/30 04:34:47;;;;;;;3.87;3.53;;;;;;;;;;5117278;28;20446;-70
2022/05/30 04:37:15;;;;;;;4.90;3.90;;;;;;;;;;5116877;28;20445;-70
2022/05/30 04:39:42;;;;;;;4.30;3.90;;;;;;;;;;5117112;28;20499;-70
2022/05/30 04:42:10;;;;;;;3.37;3.07;;;;;;;;;;5116937;28;20470;-70
2022/05/30 04:44:37;;;;;;;4.10;3.80;;;;;;;;;;5116650;28;20492;-70
2022/05/30 04:47:04;;;;;;;3.90;3.50;;;;;;;;;;5116746;28;20446;-71
2022/05/30 04:49:31;;;;;;;3.90;3.60;;;;;;;;;;5116628;28;20444;-70
2022/05/30 04:51:59;;;;;;;3.57;3.27;;;;;;;;;;5117035;28;20457;-70
2022/05/30 04:54:27;;;;;;;4.20;3.90;;;;;;;;;;5116598;28;20457;-70
2022/05/30 04:56:54;;;;;;;3.20;2.90;;;;;;;;;;5116847;28;20815;-70
2022/05/30 04:59:21;;;;;;;3.27;2.97;;;;;;;;;;5116800;28;20438;-70
2022/05/30 05:01:48;;;;;;;6.90;2.83;;;;;;;;;;5116418;28;20474;-70
2022/05/30 05:04:15;;;;;;;3.27;2.97;;;;;;;;;;5116615;28;20504;-70
2022/05/30 05:06:44;;;;;;;4.53;2.87;;;;;;;;;;5116655;28;20465;-70
2022/05/30 05:09:35;;;;;;;3.27;3.03;;;;;;;;;;5116608;28;20454;-70
2022/05/30 05:12:02;;;;;;;3.40;2.90;;;;;;;;;;5116625;27;20439;-70
2022/05/30 05:14:29;;;;;;;3.63;3.33;;;;;;;;;;5116526;28;20455;-70
2022/05/30 05:16:56;;;;;;;3.57;3.27;;;;;;;;;;5116506;28;20449;-70
2022/05/30 05:19:24;;;;;;;3.67;3.37;;;;;;;;;;5116351;28;20449;-70
2022/05/30 05:21:51;;;;;;;2.60;2.40;;;;;;;;;;5116366;28;20472;-70
2022/05/30 05:24:18;;;;;;;3.50;3.07;;;;;;;;;;5116174;27;20481;-70
2022/05/30 05:26:47;;;;;;;4.20;2.77;;;;;;;;;;5116245;27;20514;-70
2022/05/30 05:29:15;;;;;;;2.83;2.63;;;;;;;;;;5116208;28;20450;-70
2022/05/30 05:31:42;;;;;;;2.93;2.73;;;;;;;;;;5115940;28;20470;-70
2022/05/30 05:34:10;;;;;;;3.33;2.90;;;;;;;;;;5115746;28;20452;-70
2022/05/30 05:36:38;;;;;;;3.10;2.80;;;;;;;;;;5116045;28;20450;-70
2022/05/30 05:39:09;;;;;;;5.00;3.57;;;;;;;;;;5116000;28;20449;-70
2022/05/30 05:41:36;;;;;;;3.57;2.73;;;;;;;;;;5115754;27;20835;-70
2022/05/30 05:44:05;;;;;;;4.23;3.13;;;;;;;;;;5115408;28;20487;-70
2022/05/30 05:46:33;;;;;;;3.10;2.90;;;;;;;;;;5115860;28;20461;-70
2022/05/30 05:49:00;;;;;;;3.50;3.20;;;;;;;;;;5115798;28;20453;-70
2022/05/30 05:51:27;;;;;;;2.60;2.40;;;;;;;;;;5115354;28;20466;-70
2022/05/30 05:53:55;;;;;;;3.33;2.90;;;;;;;;;;5113124;28;20453;-71
2022/05/30 05:56:23;;;;;;;4.53;3.17;;;;;;;;;;5114262;28;20453;-70
2022/05/30 05:58:50;;;;;;;3.70;2.77;;;;;;;;;;5114257;28;20457;-70
2022/05/30 06:01:20;;;;;;;2.83;2.53;;;;;;;;;;5114042;28;20478;-70
2022/05/30 06:03:47;;;;;;;2.60;2.20;;;;;;;;;;5113984;28;20684;-70
2022/05/30 06:06:14;;;;;;;2.70;2.50;;;;;;;;;;5113554;28;20453;-70
2022/05/30 06:08:42;;;;;;;3.07;2.80;;;;;;;;;;5113103;28;20456;-70
2022/05/30 06:11:09;;;;;;;2.80;2.57;;;;;;;;;;5113701;28;20829;-70
2022/05/30 06:13:37;;;;;;;3.47;3.17;;;;;;;;;;5113806;28;20449;-70
2022/05/30 06:16:08;;;;;;;4.60;3.40;;;;;;;;;;5113815;28;20954;-70
2022/05/30 06:18:37;;;;;;;3.20;2.90;;;;;;;;;;5113734;28;20446;-70
2022/05/30 06:21:04;;;;;;;3.27;2.97;;;;;;;;;;5113793;28;20469;-70
2022/05/30 06:23:32;;;;;;;3.37;2.90;;;;;;;;;;5114606;28;20457;-71
2022/05/30 06:26:01;;;;;;;3.57;3.27;;;;;;;;;;5113233;28;20545;-70
2022/05/30 06:28:29;;;;;;;3.20;2.90;;;;;;;;;;5114915;28;20821;-70
2022/05/30 06:30:57;;;;;;;3.87;3.23;;;;;;;;;;5113640;28;20884;-70
2022/05/30 06:33:24;;;;;;;7.73;2.80;;;;;;;;;;5113501;28;20843;-70
2022/05/30 06:35:52;;;;;;;5.60;3.60;;;;;;;;;;5113418;28;20449;-70
2022/05/30 06:38:20;;;;;;;9.40;3.20;;;;;;;;;;5113572;27;20449;-70
2022/05/30 06:40:47;;;;;;;2.97;2.70;;;;;;;;;;5114720;28;20477;-70
2022/05/30 06:43:14;;;;;;;3.57;2.70;;;;;;;;;;5113215;28;20473;-70
2022/05/30 06:45:41;;;;;;;2.80;2.43;;;;;;;;;;5114131;28;20493;-70
2022/05/30 06:48:08;;;;;;;3.50;2.63;;;;;;;;;;5114639;28;20937;-70
2022/05/30 06:50:37;;;;;;;2.77;2.47;;;;;;;;;;5114582;28;20882;-70
2022/05/30 06:53:06;;;;;;;2.57;2.37;;;;;;;;;;5114594;28;20450;-70
2022/05/30 06:55:33;;;;;;;4.20;2.70;;;;;;;;;;5114388;28;20935;-70
2022/05/30 06:58:15;;;;;;;2.93;2.63;;;;;;;;;;5114456;28;20453;-70
2022/05/30 07:00:44;;;;;;;3.80;3.20;;;;;;;;;;5114438;28;20470;-70
2022/05/30 07:03:12;;;;;;;4.07;2.63;;;;;;;;;;5114678;28;20562;-70
2022/05/30 07:05:40;;;;;;;4.60;3.30;;;;;;;;;;5113999;28;20503;-70
2022/05/30 07:08:09;;;;;;;2.97;2.77;;;;;;;;;;5114392;28;20819;-70
2022/05/30 07:10:38;;;;;;;3.00;2.63;;;;;;;;;;5114159;28;20476;-70
2022/05/30 07:13:05;;;;;;;4.87;2.90;;;;;;;;;;5114134;28;20472;-70
2022/05/30 07:15:35;;;;;;;3.20;3.00;;;;;;;;;;5114198;28;20805;-70
2022/05/30 07:18:07;;;;;;;5.50;3.53;;;;;;;;;;5114036;28;20460;-70
2022/05/30 07:20:34;;;;;;;4.93;3.23;;;;;;;;;;5113991;28;20551;-71
2022/05/30 07:23:02;;;;;;;2.93;2.73;;;;;;;;;;5113622;28;20446;-70
2022/05/30 07:25:30;;;;;;;4.50;3.70;;;;;;;;;;5113973;28;20530;-70
2022/05/30 07:27:57;;;;;;;3.43;3.13;;;;;;;;;;5113964;28;20445;-70
2022/05/30 07:30:24;;;;;;;3.03;2.63;;;;;;;;;;5113933;28;20469;-70
2022/05/30 07:32:52;;;;;;;3.87;3.57;;;;;;;;;;5113586;28;20456;-70
2022/05/30 07:35:19;;;;;;;3.63;2.50;;;;;;;;;;5113774;28;20452;-70
2022/05/30 07:37:46;;;;;;;3.27;2.97;;;;;;;;;;5113484;28;20449;-70
2022/05/30 07:40:14;;;;;;;7.93;3.87;;;;;;;;;;5113636;28;20933;-70
2022/05/30 07:42:43;;;;;;;3.20;2.90;;;;;;;;;;5112546;28;20507;-70
2022/05/30 07:45:11;;;;;;;3.00;2.73;;;;;;;;;;5113523;28;20488;-70
2022/05/30 07:47:39;;;;;;;2.83;2.63;;;;;;;;;;5113407;28;20434;-70
2022/05/30 07:50:08;;;;;;;3.60;2.70;;;;;;;;;;5112370;28;20908;-70
2022/05/30 07:52:35;;;;;;;4.10;3.30;;;;;;;;;;5113346;28;20996;-70
2022/05/30 07:55:03;;;;;;;3.80;3.37;;;;;;;;;;5114388;28;20958;-70
2022/05/30 08:00:18;;;;;;;3.20;2.33;;;;;;;;;;5117514;28;20514;-70
2022/05/30 08:02:46;;;;;;;2.10;1.90;;;;;;;;;;5117812;28;20592;-70
2022/05/30 08:05:13;;;;;;;2.53;2.17;;;;;;;;;;5117366;28;20507;-70
2022/05/30 08:07:40;;;;;;;3.80;2.07;;;;;;;;;;5117526;28;20453;-70
2022/05/30 08:10:09;;;;;;;3.83;2.13;;;;;;;;;;5117720;28;20989;-70
2022/05/30 08:12:36;;;;;;;2.70;2.33;;;;;;;;;;5117429;28;20456;-70
2022/05/30 08:15:03;;;;;;;2.50;1.80;;;;;;;;;;5117611;28;20452;-70
2022/05/30 08:17:31;;;;;;;3.13;2.37;;;;;;;;;;5117300;28;20445;-70
2022/05/30 08:19:59;;;;;;;2.60;1.90;;;;;;;;;;5117588;28;20967;-70
2022/05/30 08:22:27;;;;;;;3.60;2.20;;;;;;;;;;5117772;28;20445;-70
2022/05/30 08:24:54;;;;;;;3.43;2.70;;;;;;;;;;5117360;28;20488;-70
2022/05/30 08:27:21;;;;;;;2.90;2.50;;;;;;;;;;5117439;28;20460;-70
2022/05/30 08:29:49;;;;;;;3.27;2.50;;;;;;;;;;5117602;28;20477;-70
2022/05/30 08:32:16;;;;;;;2.23;2.03;;;;;;;;;;5117281;28;20450;-70
2022/05/30 08:34:44;;;;;;;2.20;2.00;;;;;;;;;;5117223;28;20448;-70
2022/05/30 08:37:12;;;;;;;3.50;2.30;;;;;;;;;;5117226;28;20452;-70
2022/05/30 08:42:27;;;;;;;3.73;2.90;;;;;;;;;;5116809;28;20559;-70
2022/05/30 08:44:54;;;;;;;2.87;2.67;;;;;;;;;;5117015;28;21053;-70
2022/05/30 08:47:30;;;;;;;3.60;2.50;;;;;;;;;;5116961;28;20804;-70
2022/05/30 08:50:05;;;;;;;3.90;2.00;;;;;;;;;;5116820;28;20527;-70
2022/05/30 08:52:43;;;;;;;2.53;2.30;;;;;;;;;;5116632;28;20429;-70
2022/05/30 08:55:18;;;;;;;2.77;2.47;;;;;;;;;;5117017;28;20798;-70
2022/05/30 08:57:49;;;;;;;2.33;2.07;;;;;;;;;;5116571;28;20477;-70
2022/05/30 09:00:20;;;;;;;3.90;2.37;;;;;;;;;;5116393;28;20465;-70
2022/05/30 09:02:49;;;;;;;4.00;2.70;;;;;;;;;;5116750;28;20434;-70
2022/05/30 09:05:21;;;;;;;5.27;2.20;;;;;;;;;;5115876;28;20481;-70
2022/05/30 09:07:50;;;;;;;2.50;2.30;;;;;;;;;;5116398;28;20434;-70
2022/05/30 09:10:20;;;;;;;2.67;1.90;;;;;;;;;;5116280;28;20470;-70
2022/05/30 09:12:49;;;;;;;2.30;2.00;;;;;;;;;;5116646;28;20437;-70
2022/05/30 09:15:18;;;;;;;2.33;1.80;;;;;;;;;;5116138;28;20446;-70
2022/05/30 09:17:47;;;;;;;4.13;2.30;;;;;;;;;;5116105;27;20453;-70
2022/05/30 09:20:16;;;;;;;5.20;2.57;;;;;;;;;;5115991;28;20480;-70
2022/05/30 09:22:45;;;;;;;3.57;2.40;;;;;;;;;;5116022;28;20446;-70
2022/05/30 09:27:59;;;;;;;2.80;2.30;;;;;;;;;;5116023;28;20484;-70
2022/05/30 09:30:32;;;;;;;4.63;2.20;;;;;;;;;;5116128;27;20461;-70
2022/05/30 09:33:05;;;;;;;2.00;1.80;;;;;;;;;;5116214;28;20510;-70
2022/05/30 09:35:33;;;;;;;4.13;2.20;;;;;;;;;;5115772;28;20436;-70
2022/05/30 09:38:09;;;;;;;2.50;2.10;;;;;;;;;;5116005;28;20454;-70
2022/05/30 09:40:39;;;;;;;3.60;2.57;;;;;;;;;;5115916;28;20469;-70
2022/05/30 09:43:07;;;;;;;3.57;2.97;;;;;;;;;;5115750;28;20470;-70
2022/05/30 09:45:35;;;;;;;5.07;2.50;;;;;;;;;;5115887;28;21030;-70
2022/05/30 09:48:03;;;;;;;3.97;2.10;;;;;;;;;;5116088;28;20488;-70
2022/05/30 09:50:30;;;;;;;2.50;2.30;;;;;;;;;;5115460;28;20466;-70
2022/05/30 09:52:58;;;;;;;3.00;2.43;;;;;;;;;;5115688;28;20445;-70
2022/05/30 09:55:28;;;;;;;3.23;2.50;;;;;;;;;;5115690;28;20798;-70
2022/05/30 09:57:57;;;;;;;2.97;2.07;;;;;;;;;;5116293;28;20491;-70
2022/05/30 10:00:38;;;;;;;6.60;3.30;;;;;;;;;;5115252;28;20473;-70
2022/05/30 10:03:07;;;;;;;2.63;2.40;;;;;;;;;;5115606;28;20903;-70
2022/05/30 10:05:35;;;;;;;3.20;2.70;;;;;;;;;;5115429;28;20481;-70
2022/05/30 10:08:03;;;;;;;2.40;2.20;;;;;;;;;;5115103;28;20460;-70
2022/05/30 10:10:32;;;;;;;2.40;1.70;;;;;;;;;;5115073;28;20477;-70
2022/05/30 10:13:01;;;;;;;2.60;2.40;;;;;;;;;;5115428;28;20575;-70
2022/05/30 10:15:29;;;;;;;2.23;2.03;;;;;;;;;;5115275;28;21003;-70
2022/05/30 10:17:59;;;;;;;7.00;1.90;;;;;;;;;;5113987;28;20446;-70
2022/05/30 10:20:36;;;;;;;5.07;2.10;;;;;;;;;;5115153;28;20465;-70
2022/05/30 10:28:50;;;;;;;2.60;2.40;;;;;;;;;;5114902;28;20410;-70
2022/05/30 10:31:25;;;;;;;2.40;2.17;;;;;;;;;;5114593;28;20473;-70
2022/05/30 10:34:02;;;;;;;2.73;1.87;;;;;;;;;;5114715;28;20434;-70
2022/05/30 10:36:36;;;;;;;5.30;2.27;;;;;;;;;;5114890;28;20430;-70
2022/05/30 10:39:10;;;;;;;5.10;2.43;;;;;;;;;;5114908;27;20925;-70
2022/05/30 10:41:43;;;;;;;7.07;2.47;;;;;;;;;;5114639;28;21001;-70
2022/05/30 10:44:14;;;;;;;2.70;2.40;;;;;;;;;;5114565;28;20437;-70
2022/05/30 10:46:44;;;;;;;2.87;2.00;;;;;;;;;;5114739;28;21062;-70
2022/05/30 10:49:14;;;;;;;2.50;2.00;;;;;;;;;;5114630;28;20495;-70
2022/05/30 10:51:44;;;;;;;2.20;2.00;;;;;;;;;;5114541;28;20978;-70
2022/05/30 10:54:13;;;;;;;2.97;1.80;;;;;;;;;;5114628;28;20433;-70
2022/05/30 10:56:44;;;;;;;6.70;2.17;;;;;;;;;;5114859;28;20519;-70
2022/05/30 10:59:16;;;;;;;2.30;2.00;;;;;;;;;;5114562;28;20441;-70
2022/05/30 11:01:46;;;;;;;3.37;1.90;;;;;;;;;;5114087;28;20477;-70
2022/05/30 11:04:18;;;;;;;2.40;2.03;;;;;;;;;;5114163;28;20454;-70
2022/05/30 11:06:47;;;;;;;3.43;2.20;;;;;;;;;;5114438;28;20474;-70
2022/05/30 11:09:19;;;;;;;2.00;1.80;;;;;;;;;;5114064;28;20461;-70
2022/05/30 11:11:50;;;;;;;2.20;1.90;;;;;;;;;;5114283;28;20469;-70
2022/05/30 11:14:21;;;;;;;4.03;1.87;;;;;;;;;;5113967;28;20441;-70
2022/05/30 11:16:51;;;;;;;6.27;2.00;;;;;;;;;;5114229;28;20434;-70
2022/05/30 11:19:21;;;;;;;2.00;1.80;;;;;;;;;;5114282;28;20433;-70
2022/05/30 11:21:51;;;;;;;2.97;1.60;;;;;;;;;;5113953;28;20464;-70
2022/05/30 11:24:18;;;;;;;5.30;1.80;;;;;;;;;;5113999;28;20450;-70
2022/05/30 11:27:09;;;;;;;4.53;1.80;;;;;;;;;;5114033;28;20852;-70
2022/05/30 11:29:44;;;;;;;3.30;1.90;;;;;;;;;;5097950;28;20468;-70
2022/05/30 11:32:18;;;;;;;4.60;1.80;;;;;;;;;;5114108;28;20907;-70
2022/05/30 11:34:52;;;;;;;3.03;1.40;;;;;;;;;;5113946;28;20915;-70
2022/05/30 11:37:30;;;;;;;5.00;1.80;;;;;;;;;;5113703;28;20440;-70
2022/05/30 11:40:06;;;;;;;2.00;1.67;;;;;;;;;;5113858;28;20841;-70
2022/05/30 11:42:39;;;;;;;1.97;1.50;;;;;;;;;;5113697;28;20464;-70
2022/05/30 11:45:14;;;;;;;2.17;1.97;;;;;;;;;;5113883;28;20833;-70
2022/05/30 11:47:48;;;;;;;5.60;1.90;;;;;;;;;;5113893;28;20788;-70
2022/05/30 11:50:21;;;;;;;2.63;1.70;;;;;;;;;;5113816;28;20466;-70
2022/05/30 11:53:18;;;;;;;2.60;1.80;;;;;;;;;;5113863;28;20527;-70
2022/05/30 11:55:48;;;;;;;2.50;1.90;;;;;;;;;;5050789;28;20449;-70
2022/05/30 11:58:22;;;;;;;2.07;1.53;;;;;;;;;;5100295;28;20442;-70
2022/05/30 12:00:52;;;;;;;2.03;1.83;;;;;;;;;;5113645;28;20472;-70
2022/05/30 12:03:49;;;;;;;2.70;1.70;;;;;;;;;;5113698;28;20445;-70
2022/05/30 12:06:31;;;;;;;1.70;1.40;;;;;;;;;;5113323;28;20470;-70
2022/05/30 12:09:10;;;;;;;1.97;1.60;;;;;;;;;;5100718;28;20461;-70
2022/05/30 12:11:49;;;;;;;3.40;2.07;;;;;;;;;;5113274;28;20514;-70
2022/05/30 12:14:25;;;;;;;2.70;1.80;;;;;;;;;;5113633;28;20430;-70
2022/05/30 12:16:59;;;;;;;4.07;1.90;;;;;;;;;;5113229;28;20426;-70
2022/05/30 12:25:41;;;;;;;3.57;1.87;;;;;;;;;;5112845;28;20877;-70
2022/05/30 12:28:28;;;;;;;2.10;1.23;;;;;;;;;;5113128;28;20506;-70
2022/05/30 12:30:57;;;;;;;1.97;1.77;;;;;;;;;;5113015;28;20477;-70
2022/05/30 12:33:46;;;;;;;5.60;3.07;;;;;;;;;;5113404;28;20458;-70
2022/05/30 12:36:33;;;;;;;3.00;1.80;;;;;;;;;;5113058;28;20445;-70
2022/05/30 12:39:01;;;;;;;2.07;1.50;;;;;;;;;;5113378;28;20445;-70
2022/05/30 12:41:30;;;;;;;4.80;2.10;;;;;;;;;;5114926;28;20469;-70
2022/05/30 12:43:57;;;;;;;2.80;1.70;;;;;;;;;;5117154;28;20819;-70
2022/05/30 12:46:25;;;;;;;2.83;1.80;;;;;;;;;;5117054;27;21032;-70
2022/05/30 12:49:05;;;;;;;1.93;1.50;;;;;;;;;;5116888;28;20453;-70
2022/05/30 12:51:33;;;;;;;2.10;1.53;;;;;;;;;;5117126;28;20469;-70
2022/05/30 12:54:14;;;;;;;1.83;1.40;;;;;;;;;;5117530;28;20953;-71
2022/05/30 12:57:02;;;;;;;2.30;1.60;;;;;;;;;;5116970;28;20887;-70
2022/05/30 12:59:33;;;;;;;3.00;1.83;;;;;;;;;;5111631;28;20457;-70
2022/05/30 13:02:01;;;;;;;3.53;1.40;;;;;;;;;;5117183;28;20473;-70
2022/05/30 13:04:35;;;;;;;2.40;1.40;;;;;;;;;;5117086;28;20442;-70
2022/05/30 13:07:15;;;;;;;1.90;1.67;;;;;;;;;;5117292;28;20466;-70
2022/05/30 13:09:43;;;;;;;1.97;1.53;;;;;;;;;;5117027;28;21002;-72
2022/05/30 13:12:23;;;;;;;2.20;1.70;;;;;;;;;;5116334;28;20485;-71
2022/05/30 13:15:04;;;;;;;3.03;1.60;;;;;;;;;;5116672;28;20434;-71
2022/05/30 13:17:34;;;;;;;2.47;1.53;;;;;;;;;;5116481;27;20516;-71
2022/05/30 13:20:05;;;;;;;1.83;1.60;;;;;;;;;;5116651;28;20469;-71
2022/05/30 13:22:33;;;;;;;2.00;1.77;;;;;;;;;;5116630;28;20430;-72
2022/05/30 13:25:00;;;;;;;2.33;1.80;;;;;;;;;;5116443;28;20454;-71
2022/05/30 13:27:28;;;;;;;2.40;1.87;;;;;;;;;;5115947;28;20481;-71
2022/05/30 13:29:55;;;;;;;3.90;1.90;;;;;;;;;;5116354;28;20465;-71
2022/05/30 13:32:24;;;;;;;2.17;1.47;;;;;;;;;;5116462;28;20453;-71
2022/05/30 13:34:53;;;;;;;1.90;1.70;;;;;;;;;;5116344;28;20813;-71
2022/05/30 13:37:24;;;;;;;2.00;1.50;;;;;;;;;;5116099;28;20441;-71
2022/05/30 13:39:51;;;;;;;3.30;1.90;;;;;;;;;;5115915;27;20470;-70
2022/05/30 13:42:18;;;;;;;2.10;1.83;;;;;;;;;;5114746;27;20465;-71
2022/05/30 13:44:45;;;;;;;2.30;1.90;;;;;;;;;;5115513;28;20445;-70
2022/05/30 13:47:15;;;;;;;2.17;1.60;;;;;;;;;;5115608;28;20481;-70
2022/05/30 13:49:42;;;;;;;2.87;1.90;;;;;;;;;;5115400;28;20453;-70
2022/05/30 13:52:12;;;;;;;2.33;1.77;;;;;;;;;;5115427;28;20453;-70
2022/05/30 13:54:42;;;;;;;2.70;1.50;;;;;;;;;;5115689;28;20954;-70
2022/05/30 13:57:11;;;;;;;2.73;2.20;;;;;;;;;;5112528;28;20449;-70
2022/05/30 13:59:42;;;;;;;2.50;1.70;;;;;;;;;;5113967;28;20452;-70
2022/05/30 14:02:11;;;;;;;3.50;2.00;;;;;;;;;;5114265;28;20893;-70
2022/05/30 14:04:41;;;;;;;2.27;1.63;;;;;;;;;;5113941;28;20457;-70
2022/05/30 14:07:19;;;;;;;3.13;1.70;;;;;;;;;;5113886;28;20489;-70
2022/05/30 14:09:49;;;;;;;2.03;1.70;;;;;;;;;;5113975;28;20508;-70
2022/05/30 14:12:16;;;;;;;3.70;1.70;;;;;;;;;;5113790;28;20454;-70
2022/05/30 14:14:45;;;;;;;2.80;1.80;;;;;;;;;;5114012;28;20931;-70
2022/05/30 14:17:14;;;;;;;2.10;1.70;;;;;;;;;;5114140;28;20446;-70
2022/05/30 14:19:42;;;;;;;1.60;1.50;;;;;;;;;;5113726;28;20438;-70
2022/05/30 14:22:11;;;;;;;3.53;1.60;;;;;;;;;;5113469;28;20586;-70
2022/05/30 14:24:44;;;;;;;2.63;2.13;;;;;;;;;;5114068;28;20450;-70
2022/05/30 14:27:24;;;;;;;4.30;2.00;;;;;;;;;;5112896;28;20870;-71
2022/05/30 14:29:52;;;;;;;3.30;2.00;;;;;;;;;;5113437;28;20482;-71
2022/05/30 14:32:28;;;;;;;2.30;1.80;;;;;;;;;;5113457;28;20449;-71
2022/05/30 14:35:03;;;;;;;2.10;1.63;;;;;;;;;;5113355;27;20452;-70
2022/05/30 14:37:31;;;;;;;2.00;1.67;;;;;;;;;;5113757;28;20433;-70
2022/05/30 14:40:00;;;;;;;3.77;1.93;;;;;;;;;;5113145;28;20469;-71
2022/05/30 14:42:35;;;;;;;3.23;1.90;;;;;;;;;;5113164;28;21035;-71
2022/05/30 14:45:05;;;;;;;1.90;1.60;;;;;;;;;;5113352;28;20482;-71
2022/05/30 14:47:33;;;;;;;4.67;1.73;;;;;;;;;;5113351;28;20850;-70
2022/05/30 14:50:03;;;;;;;2.50;1.80;;;;;;;;;;5113282;28;20549;-70
2022/05/30 14:52:37;;;;;;;1.93;1.50;;;;;;;;;;5113412;28;20939;-70
2022/05/30 14:55:05;;;;;;;2.00;1.60;;;;;;;;;;5113087;28;20433;-70
2022/05/30 14:57:34;;;;;;;3.30;2.33;;;;;;;;;;5113189;28;20949;-70
2022/05/30 15:00:21;;;;;;;1.50;1.30;;;;;;;;;;5113099;28;20480;-70
2022/05/30 15:05:33;;;;;;;6.93;1.80;;;;;;;;;;5113377;28;20409;-70
2022/05/30 15:08:00;;;;;;;2.40;1.73;;;;;;;;;;5114046;28;20481;-70
2022/05/30 15:10:28;;;;;;;3.43;2.20;;;;;;;;;;5113443;28;20911;-70
2022/05/30 15:12:57;;;;;;;2.07;1.73;;;;;;;;;;5114262;28;20456;-70
2022/05/30 15:15:24;;;;;;;2.73;1.70;;;;;;;;;;5113956;28;20449;-70
2022/05/30 15:17:51;;;;;;;2.47;1.87;;;;;;;;;;5113839;28;20450;-70
2022/05/30 15:20:19;;;;;;;1.90;1.70;;;;;;;;;;5114235;28;20477;-70
2022/05/30 15:22:46;;;;;;;2.80;1.70;;;;;;;;;;5114178;27;20454;-70
2022/05/30 15:25:14;;;;;;;5.30;1.60;;;;;;;;;;5114173;28;20811;-70
2022/05/30 15:27:41;;;;;;;2.10;1.60;;;;;;;;;;5114056;28;20488;-70
2022/05/30 15:30:10;;;;;;;2.23;1.83;;;;;;;;;;5113755;28;20469;-70